Flight Track Log - Related Links

Times and Time Zones

All times are in EDT time to prevent confusion due to time zone crossing. See the N427JS flight status page for this flight to view local times or setup timezone preferences in your user account.

Time Position Orientation Groundspeed Altitude Reporting Facility
EDT Latitude Longitude Course Direction KTS MPH feet Rate Location/Type
Fri 04:20:06 PM 25.9064 -80.2914 297° West 119 137 200  Level Miami Center
Fri 04:21:25 PM 25.9361 -80.3569 297° West 199 229 2,400 1,886 Climbing Miami Center
Fri 04:22:26 PM 25.9578 -80.4153 292° West 191 220 4,600 2,074 Climbing Miami Center
Fri 04:22:46 PM 25.9678 -80.4272 313° West 186 214 5,200 1,881 Climbing Miami Center
Fri 04:23:33 PM 25.9772 -80.4736 283° West 191 220 6,700 1,938 Climbing Miami Center
Fri 04:24:22 PM 25.9947 -80.5206 293° West 199 229 8,300 1,890 Climbing Miami Center
Fri 04:24:46 PM 26.0069 -80.5417 303° West 201 231 9,000 2,262 Climbing Miami Center
Fri 04:25:23 PM 26.0142 -80.5789 282° West 196 226 10,600 2,100 Climbing Miami Center
Fri 04:25:46 PM 26.0283 -80.5978 310° West 189 217 11,100 1,745 Climbing Miami Center
Fri 04:26:18 PM 26.0381 -80.6303 288° West 201 231 12,200 1,700 Climbing Miami Center
Fri 04:26:46 PM 26.0500 -80.6517 302° West 197 227 12,800 1,432 Climbing Miami Center
Fri 04:27:46 PM 26.0528 -80.7072 273° West 202 232 14,300 1,300 Climbing Miami Center
Fri 04:28:46 PM 26.0956 -80.7478 320° Northwest 184 212 15,400 1,100 Climbing Miami Center
Fri 04:29:46 PM 26.1489 -80.7819 330° Northwest 194 223 16,500 1,150 Climbing Miami Center
Fri 04:30:46 PM 26.2044 -80.8161 331° Northwest 214 246 17,700 1,300 Climbing Miami Center
Fri 04:31:46 PM 26.2514 -80.8525 325° Northwest 214 246 19,100 1,150 Climbing Miami Center
Fri 04:32:46 PM 26.2986 -80.8819 331° Northwest 209 241 20,000 950 Climbing Miami Center
Fri 04:33:46 PM 26.3561 -80.9208 329° Northwest 209 241 21,000 824 Climbing Miami Center
Fri 04:34:57 PM 26.4053 -80.9528 330° Northwest 215 247 21,800 864 Climbing Miami Center
Fri 04:35:58 PM 26.4686 -80.9967 328° Northwest 222 255 22,900 992 Climbing Miami Center
Fri 04:36:58 PM 26.5242 -81.0311 331° Northwest 222 255 23,800 800 Climbing Miami Center
Fri 04:37:58 PM 26.5775 -81.0656 330° Northwest 217 250 24,500 750 Climbing Miami Center
Fri 04:38:58 PM 26.6347 -81.1025 330° Northwest 222 255 25,300 800 Climbing Miami Center
Fri 04:39:58 PM 26.6839 -81.1344 330° Northwest 216 249 26,100 750 Climbing Miami Center
Fri 04:40:58 PM 26.7331 -81.1689 328° Northwest 211 243 26,800 500 Climbing Miami Center
Fri 04:41:58 PM 26.7803 -81.1986 331° Northwest 205 236 27,100 500 Climbing Miami Center
Fri 04:42:58 PM 26.8314 -81.2375 326° Northwest 205 236 27,800 450 Climbing Miami Center
Fri 04:43:58 PM 26.8886 -81.2725 331° Northwest 215 247 28,000 200 Climbing Miami Center
Fri 04:44:58 PM 26.9458 -81.3164 326° Northwest 233 268 28,200 550 Climbing Miami Center
Fri 04:45:58 PM 27.0053 -81.3536 331° Northwest 238 274 29,100 650 Climbing Miami Center
Fri 04:46:58 PM 27.0667 -81.3911 331° Northwest 249 287 29,500 450 Climbing Miami Center
Fri 04:47:58 PM 27.1239 -81.4283 330° Northwest 244 281 30,000 250 Climbing Miami Center
Fri 04:48:58 PM 27.1892 -81.4753 327° Northwest 249 287 30,000  Level Miami Center
Fri 04:49:58 PM 27.2483 -81.5219 325° Northwest 249 287 30,000  Level Miami Center
Fri 04:50:58 PM 27.2986 -81.5778 315° West 256 295 30,000  Level Miami Center
Fri 04:51:58 PM 27.3469 -81.6311 316° Northwest 262 302 30,000  Level Miami Center
Fri 04:52:58 PM 27.4075 -81.6919 318° Northwest 267 307 30,000  Level Miami Center
Fri 04:53:58 PM 27.4642 -81.7483 319° Northwest 267 307 30,000  Level Miami Center
Fri 04:54:58 PM 27.5206 -81.8044 319° Northwest 267 307 30,000  Level Miami Center
Fri 04:55:58 PM 27.5692 -81.8533 318° Northwest 262 302 30,000  Level Miami Center
Fri 04:56:58 PM 27.6233 -81.9097 317° Northwest 267 307 30,000  Level Miami Center
Fri 04:57:58 PM 27.6753 -81.9753 312° West 262 302 30,000  Level Miami Center
Fri 04:58:58 PM 27.7275 -82.0361 314° West 262 302 30,000  Level Miami Center
Fri 04:59:58 PM 27.7775 -82.0947 314° West 262 302 30,000  Level Miami Center
Fri 05:02:20 PM 27.8894 -82.2328 313° West 264 304 30,000  Level Jacksonville Center
Fri 05:03:20 PM 27.9586 -82.2700 335° Northwest 254 292 30,000  Level Jacksonville Center
Fri 05:04:20 PM 28.0297 -82.3000 340° North 259 298 30,000  Level Jacksonville Center
Fri 05:05:20 PM 28.1008 -82.3325 338° Northwest 266 306 30,000  Level Jacksonville Center
Fri 05:06:20 PM 28.1719 -82.3675 337° Northwest 272 313 30,000  Level Jacksonville Center
Fri 05:07:20 PM 28.2428 -82.4000 338° Northwest 272 313 30,000  Level Jacksonville Center
Fri 05:08:20 PM 28.3119 -82.4353 336° Northwest 272 313 30,000  Level Jacksonville Center
Fri 05:09:20 PM 28.3850 -82.4678 339° North 272 313 30,000  Level Jacksonville Center
Fri 05:10:20 PM 28.4539 -82.4983 339° North 272 313 30,000  Level Jacksonville Center
Fri 05:11:20 PM 28.5250 -82.5311 338° Northwest 272 313 30,000  Level Jacksonville Center
Fri 05:12:20 PM 28.5961 -82.5664 336° Northwest 272 313 30,000  Level Jacksonville Center
Fri 05:13:20 PM 28.6692 -82.6014 337° Northwest 272 313 30,000  Level Jacksonville Center
Fri 05:14:20 PM 28.7381 -82.6369 336° Northwest 272 313 30,000  Level Jacksonville Center
Fri 05:15:20 PM 28.8072 -82.6697 337° Northwest 272 313 30,000  Level Jacksonville Center
Fri 05:16:20 PM 28.8656 -82.7267 319° Northwest 267 307 30,000  Level Jacksonville Center
Fri 05:17:20 PM 28.9219 -82.7836 319° Northwest 267 307 30,000  Level Jacksonville Center
Fri 05:18:20 PM 28.9764 -82.8403 318° Northwest 267 307 30,000  Level Jacksonville Center
Fri 05:19:20 PM 29.0328 -82.8997 317° Northwest 267 307 30,000  Level Jacksonville Center
Fri 05:20:20 PM 29.0892 -82.9567 319° Northwest 267 307 30,000  Level Jacksonville Center
Fri 05:21:20 PM 29.1453 -83.0161 317° Northwest 267 307 30,000  Level Jacksonville Center
Fri 05:22:20 PM 29.2058 -83.0758 319° Northwest 272 313 30,000  Level Jacksonville Center
Fri 05:23:20 PM 29.2622 -83.1353 317° Northwest 272 313 30,000  Level Jacksonville Center
Fri 05:24:20 PM 29.3206 -83.1950 318° Northwest 272 313 30,000  Level Jacksonville Center
Fri 05:25:20 PM 29.3786 -83.2572 317° Northwest 278 320 30,000  Level Jacksonville Center
Fri 05:26:20 PM 29.4369 -83.3219 316° Northwest 283 326 30,000  Level Jacksonville Center
Fri 05:27:20 PM 29.4972 -83.3842 318° Northwest 283 326 30,000  Level Jacksonville Center
Fri 05:28:20 PM 29.5575 -83.4464 318° Northwest 289 333 30,000  Level Jacksonville Center
Fri 05:29:20 PM 29.6158 -83.5089 317° Northwest 289 333 30,000  Level Jacksonville Center
Fri 05:30:20 PM 29.6761 -83.5692 319° Northwest 289 333 30,000  Level Jacksonville Center
Fri 05:31:20 PM 29.7342 -83.6342 316° Northwest 289 333 30,000  Level Jacksonville Center
Fri 05:32:20 PM 29.7964 -83.6944 320° Northwest 289 333 30,000  Level Jacksonville Center
Fri 05:33:20 PM 29.8522 -83.7569 316° Northwest 289 333 30,000  Level Jacksonville Center
Fri 05:34:20 PM 29.9144 -83.8200 319° Northwest 289 333 30,000  Level Jacksonville Center
Fri 05:35:20 PM 29.9767 -83.8878 317° Northwest 289 333 30,000  Level Jacksonville Center
Fri 05:36:20 PM 30.0367 -83.9506 318° Northwest 289 333 30,000  Level Jacksonville Center
Fri 05:37:20 PM 30.0944 -84.0136 317° Northwest 289 333 30,000  Level Jacksonville Center
Fri 05:38:20 PM 30.1544 -84.0769 318° Northwest 289 333 30,000  Level Jacksonville Center
Fri 05:39:20 PM 30.2144 -84.1400 318° Northwest 294 338 30,000  Level Jacksonville Center
Fri 05:40:20 PM 30.2703 -84.2033 316° Northwest 288 331 30,000  Level Jacksonville Center
Fri 05:41:20 PM 30.3300 -84.2667 318° Northwest 288 331 30,000  Level Jacksonville Center
Fri 05:42:20 PM 30.3900 -84.3303 318° Northwest 288 331 30,000  Level Jacksonville Center
Fri 05:43:20 PM 30.4478 -84.3914 318° Northwest 288 331 30,000  Level Jacksonville Center
Fri 05:44:20 PM 30.5053 -84.4550 316° Northwest 288 331 30,000  Level Jacksonville Center
Fri 05:45:20 PM 30.5611 -84.5161 317° Northwest 288 331 30,000  Level Jacksonville Center
Fri 05:46:20 PM 30.6228 -84.5775 319° Northwest 288 331 30,000  Level Jacksonville Center
Fri 05:47:20 PM 30.6742 -84.6364 315° West 288 331 30,000  Level Jacksonville Center
Fri 05:48:20 PM 30.7297 -84.6978 316° Northwest 288 331 30,000  Level Jacksonville Center
Fri 05:49:20 PM 30.7872 -84.7619 316° Northwest 288 331 30,000  Level Jacksonville Center
Fri 05:50:20 PM 30.8447 -84.8233 317° Northwest 288 331 30,000  Level Jacksonville Center
Fri 05:51:20 PM 30.9022 -84.8875 316° Northwest 288 331 30,000  Level Jacksonville Center
Fri 05:52:20 PM 30.9597 -84.9469 318° Northwest 288 331 30,000  Level Jacksonville Center
Fri 05:53:20 PM 31.0194 -85.0114 317° Northwest 288 331 30,000  Level Jacksonville Center
Fri 05:54:20 PM 31.0808 -85.0806 316° Northwest 288 331 30,000  Level Jacksonville Center
Fri 05:55:20 PM 31.1319 -85.1375 316° Northwest 288 331 30,000  Level Jacksonville Center
Fri 05:57:01 PM 31.2336 -85.2531 316° Northwest 283 326 30,000  Level Atlanta Center
Fri 05:58:01 PM 31.2933 -85.3169 318° Northwest 289 333 30,000  Level Atlanta Center
Fri 05:59:01 PM 31.3469 -85.3811 314° West 289 333 30,000  Level Atlanta Center
Fri 06:00:01 PM 31.3944 -85.4303 319° Northwest 284 327 30,000  Level Atlanta Center
Fri 06:01:01 PM 31.4564 -85.4969 317° Northwest 284 327 30,000  Level Atlanta Center
Fri 06:02:01 PM 31.5139 -85.5614 316° Northwest 284 327 30,000  Level Atlanta Center
Fri 06:03:01 PM 31.5694 -85.6256 315° West 284 327 30,000  Level Atlanta Center
Fri 06:04:01 PM 31.6269 -85.6900 316° Northwest 279 321 30,000  Level Atlanta Center
Fri 06:05:01 PM 31.6867 -85.7522 318° Northwest 279 321 30,000  Level Atlanta Center
Fri 06:06:01 PM 31.7422 -85.8192 314° West 279 321 30,000  Level Atlanta Center
Fri 06:07:01 PM 31.7997 -85.8839 316° Northwest 284 327 30,000  Level Atlanta Center
Fri 06:08:01 PM 31.8572 -85.9486 316° Northwest 284 327 30,000  Level Atlanta Center
Fri 06:09:01 PM 31.9125 -86.0133 315° West 279 321 30,000  Level Atlanta Center
Fri 06:10:01 PM 31.9719 -86.0783 317° Northwest 279 321 30,000  Level Atlanta Center
Fri 06:11:01 PM 32.0272 -86.1408 316° Northwest 279 321 30,000  Level Atlanta Center
Fri 06:12:01 PM 32.0844 -86.2083 315° West 279 321 30,000  Level Atlanta Center
Fri 06:13:01 PM 32.1417 -86.2758 315° West 279 321 30,000  Level Atlanta Center
Fri 06:14:01 PM 32.2031 -86.3411 318° Northwest 284 327 30,000  Level Atlanta Center
Fri 06:15:01 PM 32.2728 -86.4142 318° Northwest 300 345 30,000  Level Atlanta Center
Fri 06:16:01 PM 32.3297 -86.4822 315° West 305 351 30,000  Level Atlanta Center
Fri 06:17:01 PM 32.3889 -86.5503 316° Northwest 305 351 30,000  Level Atlanta Center
Fri 06:18:01 PM 32.4461 -86.6158 316° Northwest 290 334 30,000  Level Atlanta Center
Fri 06:19:01 PM 32.4931 -86.6664 318° Northwest 284 327 30,000  Level Atlanta Center
Fri 06:20:01 PM 32.5561 -86.7472 313° West 279 321 30,000  Level Atlanta Center
Fri 06:21:01 PM 32.6194 -86.8083 321° Northwest 284 327 30,000  Level Atlanta Center
Fri 06:22:01 PM 32.6742 -86.8767 314° West 289 333 30,000  Level Atlanta Center
Fri 06:23:01 PM 32.7331 -86.9428 317° Northwest 289 333 30,000  Level Atlanta Center
Fri 06:24:01 PM 32.7919 -87.0114 316° Northwest 294 338 30,000  Level Atlanta Center
Fri 06:25:01 PM 32.8489 -87.0775 316° Northwest 288 331 30,000  Level Atlanta Center
Fri 06:26:01 PM 32.9097 -87.1464 316° Northwest 294 338 30,000  Level Atlanta Center
Fri 06:27:01 PM 32.9728 -87.2106 320° Northwest 294 338 30,000  Level Atlanta Center
Fri 06:28:01 PM 33.0108 -87.2739 306° West 294 338 30,000  Level Atlanta Center
Fri 06:29:01 PM 33.0778 -87.3483 317° Northwest 294 338 30,000  Level Atlanta Center
Fri 06:31:08 PM 33.2089 -87.5044 315° West 335 386 30,000  Level Memphis Center
Fri 06:32:08 PM 33.2692 -87.5744 316° Northwest 313 360 30,000  Level Memphis Center
Fri 06:33:08 PM 33.3269 -87.6447 315° West 306 352 30,000  Level Memphis Center
Fri 06:34:08 PM 33.3889 -87.7150 317° Northwest 301 346 30,000  Level Memphis Center
Fri 06:35:08 PM 33.4469 -87.7856 315° West 301 346 30,000 -100 Level Memphis Center
Fri 06:36:08 PM 33.5067 -87.8583 315° West 296 341 29,800 -565 Descending Memphis Center
Fri 06:36:33 PM 33.5322 -87.8825 322° Northwest 304 350 29,200 -1,900 Descending Memphis Center
Fri 06:37:08 PM 33.5708 -87.9314 313° West 296 341 27,900 -2,500 Descending Memphis Center
Fri 06:37:45 PM 33.6114 -87.9778 316° Northwest 327 376 26,200 -2,600 Descending Memphis Center
Fri 06:38:08 PM 33.6350 -88.0094 312° West 310 357 25,300 -2,164 Descending Memphis Center
Fri 06:38:46 PM 33.6753 -88.0533 318° Northwest 327 376 24,000 -1,300 Descending Memphis Center
Fri 06:39:08 PM 33.6989 -88.0875 310° West 317 365 24,000 -600 Level Memphis Center
Fri 06:39:46 PM 33.7417 -88.1339 318° Northwest 315 362 23,400 -1,200 Descending Memphis Center
Fri 06:40:08 PM 33.7589 -88.1608 308° West 311 358 22,800 -2,656 Descending Memphis Center
Fri 06:40:47 PM 33.8033 -88.2097 318° Northwest 322 371 20,700 -3,200 Descending Memphis Center
Fri 06:41:08 PM 33.8228 -88.2344 313° West 319 367 19,600 -2,945 Descending Memphis Center
Fri 06:41:42 PM 33.8608 -88.2758 318° Northwest 319 367 18,000 -2,700 Descending Memphis Center
Fri 06:42:08 PM 33.8822 -88.3081 309° West 284 327 16,900 -2,930 Descending Memphis Center
Fri 06:43:08 PM 33.9397 -88.3767 315° West 284 327 13,800 -3,200 Descending Memphis Center
Fri 06:44:08 PM 33.9953 -88.4481 313° West 284 327 10,500 -2,450 Descending Memphis Center
Fri 06:45:08 PM 34.0236 -88.5300 293° West 279 321 8,900 -1,600 Descending Memphis Center
Fri 06:46:08 PM 34.0497 -88.6022 294° West 255 293 7,300 -1,650 Descending Memphis Center
Fri 06:47:08 PM 34.0736 -88.6794 290° West 250 288 5,600 -1,850 Descending Memphis Center
Fri 06:48:08 PM 34.0744 -88.7422 271° West 224 258 3,600 -1,600 Descending Memphis Center
Fri 06:49:08 PM 34.0919 -88.8019 290° West 206 237 2,400 -800 Descending Memphis Center
Fri 06:50:08 PM 34.1500 -88.7708 24° Northeast 136 157 2,000 -200 Descending Memphis Center
Fri 06:51:08 PM 34.1794 -88.7931 328° Northwest 136 157 2,000 1,500 Level Memphis Center
Fri 06:52:08 PM 34.2111 -88.8175 327° Northwest 136 157 5,000 1,500 Climbing Memphis Center
Fri 06:53:08 PM 34.2428 -88.8419 327° Northwest 136 157 5,000  Level Memphis Center
Fri 06:54:08 PM 34.2744 -88.8667 327° Northwest 136 157 5,000  Level Memphis Center

Login

Don't have an account? Register now (free) for customized features, flight alerts, and more!